createdAt,value
2018-06-20T00:00:12.652Z,21.50
2018-06-20T00:05:09.687Z,21.50
2018-06-20T00:07:38.420Z,21.50
2018-06-20T00:10:07.063Z,21.50
2018-06-20T00:12:35.660Z,21.50
2018-06-20T00:15:04.376Z,21.50
2018-06-20T00:17:33.045Z,21.40
2018-06-20T00:20:01.793Z,21.40
2018-06-20T00:22:30.364Z,21.30
2018-06-20T00:24:59.032Z,21.30
2018-06-20T00:27:27.733Z,21.40
2018-06-20T00:29:56.421Z,21.40
2018-06-20T00:32:25.065Z,21.40
2018-06-20T00:34:53.709Z,21.40
2018-06-20T00:37:22.388Z,21.40
2018-06-20T00:39:51.284Z,21.30
2018-06-20T00:42:20.085Z,21.20
2018-06-20T00:44:48.864Z,21.20
2018-06-20T00:47:17.529Z,21.20
2018-06-20T00:49:46.255Z,21.20
2018-06-20T00:52:14.849Z,21.20
2018-06-20T00:54:43.433Z,21.20
2018-06-20T00:57:12.073Z,21.20
2018-06-20T00:59:40.861Z,21.20
2018-06-20T01:02:09.776Z,21.20
2018-06-20T01:04:38.413Z,21.20
2018-06-20T01:07:07.084Z,21.20
2018-06-20T01:09:35.757Z,21.20
2018-06-20T01:12:04.442Z,21.20
2018-06-20T01:14:33.043Z,21.20
2018-06-20T01:17:01.845Z,21.20
2018-06-20T01:19:30.502Z,21.20
2018-06-20T01:21:59.140Z,21.20
2018-06-20T01:24:27.748Z,21.10
2018-06-20T01:26:56.476Z,21.20
2018-06-20T01:29:25.216Z,21.20
2018-06-20T01:31:54.014Z,21.20
2018-06-20T01:34:22.837Z,21.10
2018-06-20T01:36:51.523Z,21.10
2018-06-20T01:39:20.165Z,21.00
2018-06-20T01:41:48.794Z,21.10
2018-06-20T01:44:17.596Z,21.00
2018-06-20T01:46:46.214Z,21.00
2018-06-20T01:49:15.120Z,21.00
2018-06-20T01:51:43.697Z,21.10
2018-06-20T01:54:12.495Z,21.00
2018-06-20T01:56:41.409Z,21.10
2018-06-20T01:59:10.032Z,21.10
2018-06-20T02:01:38.653Z,21.10
2018-06-20T02:04:07.224Z,21.10
2018-06-20T02:06:35.945Z,21.10
2018-06-20T02:09:07.191Z,21.10
2018-06-20T02:11:35.928Z,21.10
2018-06-20T02:14:04.831Z,21.00
2018-06-20T02:16:33.521Z,21.00
2018-06-20T02:19:02.186Z,21.00
2018-06-20T02:21:30.793Z,21.00
2018-06-20T02:23:59.401Z,21.00
2018-06-20T02:26:28.013Z,21.00
2018-06-20T02:31:25.031Z,21.00
2018-06-20T02:33:53.686Z,21.00
2018-06-20T02:36:27.733Z,21.00
2018-06-20T02:38:56.316Z,21.00
2018-06-20T02:41:25.021Z,21.00
2018-06-20T02:43:53.992Z,20.90
2018-06-20T02:46:22.642Z,20.90
2018-06-20T02:48:51.308Z,20.90
2018-06-20T02:51:20.183Z,20.90
2018-06-20T02:53:48.950Z,20.90
2018-06-20T02:56:17.832Z,20.90
2018-06-20T02:58:46.505Z,20.90
2018-06-20T03:01:15.152Z,20.90
2018-06-20T03:03:43.810Z,20.90
2018-06-20T03:06:12.426Z,20.90
2018-06-20T03:08:41.254Z,20.90
2018-06-20T03:11:09.892Z,21.00
2018-06-20T03:13:38.509Z,20.90
2018-06-20T03:16:07.146Z,20.90
2018-06-20T03:18:35.802Z,20.90
2018-06-20T03:21:04.412Z,20.90
2018-06-20T03:23:33.013Z,20.80
2018-06-20T03:26:01.774Z,20.90
2018-06-20T03:28:30.363Z,20.80
2018-06-20T03:30:58.988Z,20.90
2018-06-20T03:35:55.939Z,21.00
2018-06-20T03:38:24.529Z,21.00
2018-06-20T03:40:53.137Z,21.00
2018-06-20T03:43:21.781Z,21.10
2018-06-20T03:45:50.605Z,21.10
2018-06-20T03:48:19.301Z,21.00
2018-06-20T03:50:48.017Z,21.00
2018-06-20T03:53:16.888Z,20.90
2018-06-20T03:55:45.609Z,20.90
2018-06-20T03:58:14.317Z,20.90
2018-06-20T04:00:42.973Z,20.80
2018-06-20T04:03:11.612Z,20.70
2018-06-20T04:05:40.268Z,20.80
2018-06-20T04:08:08.948Z,20.80
2018-06-20T04:10:37.568Z,20.70
2018-06-20T04:15:34.599Z,20.80
2018-06-20T04:18:03.457Z,20.90
2018-06-20T04:20:32.167Z,20.80
2018-06-20T04:23:00.792Z,20.80
2018-06-20T04:25:29.522Z,20.80
2018-06-20T04:27:59.584Z,20.70
2018-06-20T04:30:28.220Z,20.70
2018-06-20T04:32:56.910Z,20.60
2018-06-20T04:35:25.645Z,20.70
2018-06-20T04:37:54.252Z,20.80
2018-06-20T04:40:22.889Z,20.70
2018-06-20T04:42:51.490Z,20.70
2018-06-20T04:45:20.250Z,20.70
2018-06-20T04:47:48.892Z,20.80
2018-06-20T04:50:17.542Z,20.80
2018-06-20T04:52:46.133Z,20.80
2018-06-20T04:55:15.029Z,20.80
2018-06-20T04:57:43.620Z,20.80
2018-06-20T05:00:12.276Z,20.80
2018-06-20T05:02:40.941Z,20.70
2018-06-20T05:05:09.838Z,20.80
2018-06-20T05:07:38.623Z,20.80
2018-06-20T05:10:07.278Z,20.80
2018-06-20T05:12:35.968Z,20.90
2018-06-20T05:15:04.644Z,20.90
2018-06-20T05:17:33.834Z,20.90
2018-06-20T05:20:02.668Z,21.00
2018-06-20T05:22:31.443Z,21.00
2018-06-20T05:25:01.371Z,21.00
2018-06-20T05:27:29.986Z,20.90
2018-06-20T05:29:58.628Z,21.00
2018-06-20T05:32:27.327Z,21.10
2018-06-20T05:34:55.996Z,21.10
2018-06-20T05:37:24.677Z,21.20
2018-06-20T05:39:53.269Z,21.20
2018-06-20T05:42:22.002Z,21.10
2018-06-20T05:44:50.779Z,21.20
2018-06-20T05:47:19.413Z,21.20
2018-06-20T05:49:47.997Z,21.30
2018-06-20T05:52:16.620Z,21.20
2018-06-20T05:54:45.224Z,21.30
2018-06-20T05:57:13.848Z,21.40
2018-06-20T05:59:42.671Z,21.30
2018-06-20T06:02:11.336Z,21.40
2018-06-20T06:04:39.931Z,21.50
2018-06-20T06:07:08.744Z,21.60
2018-06-20T06:09:37.421Z,21.60
2018-06-20T06:12:06.369Z,21.70
2018-06-20T06:14:35.382Z,21.70
2018-06-20T06:17:04.267Z,21.90
2018-06-20T06:19:33.001Z,22.00
2018-06-20T06:22:01.589Z,22.00
2018-06-20T06:24:30.209Z,22.10
2018-06-20T06:26:58.890Z,22.30
2018-06-20T06:29:27.477Z,22.60
2018-06-20T06:31:56.198Z,22.50
2018-06-20T06:34:24.812Z,22.60
2018-06-20T06:36:53.481Z,22.60
2018-06-20T06:39:22.168Z,22.40
2018-06-20T06:41:50.852Z,22.40
2018-06-20T06:44:20.409Z,22.60
2018-06-20T06:46:49.084Z,23.00
2018-06-20T06:49:17.676Z,23.10
2018-06-20T06:51:46.315Z,22.90
2018-06-20T06:54:14.909Z,22.80
2018-06-20T06:56:43.632Z,22.80
2018-06-20T06:59:12.293Z,22.80
2018-06-20T07:01:40.901Z,22.80
2018-06-20T07:04:09.595Z,22.80
2018-06-20T07:06:38.193Z,22.90
2018-06-20T07:09:08.456Z,22.80
2018-06-20T07:11:37.125Z,22.80
2018-06-20T07:14:05.844Z,22.80
2018-06-20T07:16:34.461Z,22.80
2018-06-20T07:19:03.219Z,22.80
2018-06-20T07:21:31.849Z,22.90
2018-06-20T07:24:00.575Z,23.00
2018-06-20T07:26:29.236Z,23.00
2018-06-20T07:28:58.128Z,22.90
2018-06-20T07:31:26.704Z,23.00
2018-06-20T07:33:55.512Z,23.10
2018-06-20T07:36:24.259Z,23.20
2018-06-20T07:38:52.791Z,23.40
2018-06-20T07:41:21.429Z,23.40
2018-06-20T07:43:50.048Z,23.40
2018-06-20T07:46:18.737Z,23.40
2018-06-20T07:48:47.350Z,23.30
2018-06-20T07:51:16.025Z,23.50
2018-06-20T07:53:44.630Z,23.40
2018-06-20T07:56:13.305Z,23.30
2018-06-20T07:58:47.372Z,23.50
2018-06-20T08:01:32.588Z,23.60
2018-06-20T08:04:06.691Z,23.70
2018-06-20T08:06:40.703Z,23.70
2018-06-20T08:09:14.466Z,23.70
2018-06-20T08:11:48.553Z,23.80
2018-06-20T08:14:22.682Z,24.00
2018-06-20T08:16:56.515Z,24.00
2018-06-20T08:19:30.399Z,24.10
2018-06-20T08:21:59.047Z,24.10
2018-06-20T08:24:27.926Z,24.20
2018-06-20T08:26:56.550Z,24.20
2018-06-20T08:34:22.148Z,24.30
2018-06-20T08:36:52.350Z,24.40
2018-06-20T08:39:21.053Z,24.50
2018-06-20T08:41:49.832Z,24.70
2018-06-20T08:44:18.449Z,24.70
2018-06-20T08:46:47.177Z,24.80
2018-06-20T08:49:15.838Z,24.70
2018-06-20T08:51:44.424Z,24.90
2018-06-20T08:54:13.082Z,24.90
2018-06-20T08:56:41.787Z,24.80
2018-06-20T08:59:10.599Z,25.00
2018-06-20T09:04:12.685Z,25.10
2018-06-20T09:06:46.636Z,25.00
2018-06-20T09:09:20.644Z,25.00
2018-06-20T09:11:54.566Z,25.00
2018-06-20T09:14:23.252Z,25.00
2018-06-20T09:16:57.441Z,24.90
2018-06-20T09:19:31.305Z,24.80
2018-06-20T09:22:00.068Z,24.80
2018-06-20T09:24:28.762Z,24.70
2018-06-20T09:26:57.360Z,24.90
2018-06-20T09:29:26.038Z,25.10
2018-06-20T09:31:54.646Z,25.20
2018-06-20T09:34:23.309Z,25.20
2018-06-20T09:36:51.973Z,25.00
2018-06-20T09:39:20.589Z,24.90
2018-06-20T09:41:49.183Z,24.90
2018-06-20T09:44:17.983Z,24.90
2018-06-20T09:46:46.601Z,24.90
2018-06-20T09:49:15.241Z,25.10
2018-06-20T09:51:43.848Z,25.20
2018-06-20T09:54:12.505Z,25.20
2018-06-20T09:56:41.376Z,25.20
2018-06-20T09:59:15.244Z,25.30
2018-06-20T10:01:49.196Z,25.40
2018-06-20T10:04:23.229Z,25.50
2018-06-20T10:06:57.320Z,25.50
2018-06-20T10:09:31.278Z,25.80
2018-06-20T10:12:05.338Z,25.60
2018-06-20T10:14:33.952Z,25.60
2018-06-20T10:17:02.593Z,25.50
2018-06-20T10:19:31.197Z,25.40
2018-06-20T10:21:59.986Z,25.70
2018-06-20T10:24:28.787Z,25.80
2018-06-20T10:26:57.511Z,25.60
2018-06-20T10:29:26.134Z,25.60
2018-06-20T10:31:54.848Z,25.50
2018-06-20T10:34:23.623Z,25.50
2018-06-20T10:36:52.245Z,25.60
2018-06-20T10:39:20.994Z,25.50
2018-06-20T10:41:49.710Z,25.50
2018-06-20T10:44:18.374Z,25.50
2018-06-20T10:46:52.393Z,25.60
2018-06-20T10:49:21.071Z,25.80
2018-06-20T10:51:49.689Z,26.00
2018-06-20T10:54:18.433Z,26.00
2018-06-20T10:56:52.400Z,26.00
2018-06-20T10:59:26.368Z,26.00
2018-06-20T11:02:00.391Z,25.90
2018-06-20T11:04:34.924Z,26.00
2018-06-20T11:07:09.024Z,25.80
2018-06-20T11:09:42.942Z,25.80
2018-06-20T11:12:16.957Z,25.80
2018-06-20T11:14:45.648Z,25.90
2018-06-20T11:17:14.265Z,25.90
2018-06-20T11:19:42.960Z,25.90
2018-06-20T11:22:11.577Z,26.10
2018-06-20T11:24:40.204Z,26.10
2018-06-20T11:27:08.974Z,26.20
2018-06-20T11:29:37.608Z,26.10
2018-06-20T11:32:06.473Z,26.10
2018-06-20T11:34:35.315Z,26.20
2018-06-20T11:37:03.946Z,26.10
2018-06-20T11:39:32.597Z,26.20
2018-06-20T11:42:01.212Z,26.50
2018-06-20T11:44:29.860Z,26.70
2018-06-20T11:47:03.849Z,26.80
2018-06-20T11:49:32.800Z,26.90
2018-06-20T11:52:04.848Z,26.90
2018-06-20T11:54:33.506Z,26.70
2018-06-20T11:57:02.139Z,26.50
2018-06-20T11:59:36.105Z,26.40
2018-06-20T12:02:09.956Z,26.30
2018-06-20T12:04:43.824Z,26.40
2018-06-20T12:07:17.773Z,26.60
2018-06-20T12:09:51.855Z,26.50
2018-06-20T12:12:25.992Z,26.60
2018-06-20T12:14:59.896Z,27.00
2018-06-20T12:17:34.184Z,26.90
2018-06-20T12:20:08.125Z,26.60
2018-06-20T12:22:42.059Z,26.60
2018-06-20T12:25:16.110Z,26.80
2018-06-20T12:27:50.036Z,26.80
2018-06-20T12:30:23.960Z,27.00
2018-06-20T12:32:57.901Z,27.00
2018-06-20T12:35:31.924Z,27.00
2018-06-20T12:38:06.500Z,27.20
2018-06-20T12:40:40.484Z,27.20
2018-06-20T12:43:14.318Z,27.00
2018-06-20T12:45:43.207Z,27.20
2018-06-20T12:48:11.840Z,27.40
2018-06-20T12:50:40.674Z,27.50
2018-06-20T12:53:09.331Z,27.60
2018-06-20T12:55:37.961Z,27.40
2018-06-20T12:58:06.585Z,27.30
2018-06-20T13:00:35.484Z,27.10
2018-06-20T13:03:04.104Z,27.10
2018-06-20T13:05:32.800Z,27.10
2018-06-20T13:08:01.486Z,27.40
2018-06-20T13:10:30.254Z,27.70
2018-06-20T13:12:58.881Z,27.60
2018-06-20T13:17:55.880Z,27.30
2018-06-20T13:20:24.609Z,27.20
2018-06-20T13:22:53.294Z,27.10
2018-06-20T13:25:21.915Z,27.20
2018-06-20T13:27:50.632Z,27.20
2018-06-20T13:30:19.248Z,27.30
2018-06-20T13:32:53.229Z,27.20
2018-06-20T13:35:27.364Z,27.40
2018-06-20T13:38:01.452Z,27.80
2018-06-20T13:40:35.573Z,27.90
2018-06-20T13:43:09.500Z,27.90
2018-06-20T13:45:43.584Z,27.90
2018-06-20T13:48:17.620Z,27.80
2018-06-20T13:50:46.345Z,27.80
2018-06-20T13:53:15.073Z,27.80
2018-06-20T13:55:43.882Z,27.80
2018-06-20T13:58:13.979Z,28.00
2018-06-20T14:00:42.896Z,28.30
2018-06-20T14:03:11.520Z,28.20
2018-06-20T14:05:40.170Z,28.00
2018-06-20T14:08:08.860Z,27.80
2018-06-20T14:10:37.523Z,27.80
2018-06-20T14:13:06.200Z,27.80
2018-06-20T14:15:34.926Z,27.80
2018-06-20T14:18:03.665Z,27.90
2018-06-20T14:20:37.496Z,27.90
2018-06-20T14:23:06.465Z,27.90
2018-06-20T14:25:35.190Z,28.00
2018-06-20T14:28:03.832Z,28.10
2018-06-20T14:30:37.795Z,28.00
2018-06-20T14:33:12.019Z,28.00
2018-06-20T14:35:45.821Z,28.10
2018-06-20T14:38:20.028Z,28.20
2018-06-20T14:40:53.885Z,28.10
2018-06-20T14:43:27.852Z,28.30
2018-06-20T14:46:01.961Z,28.30
2018-06-20T14:48:30.851Z,28.50
2018-06-20T14:50:59.481Z,28.60
2018-06-20T14:53:28.096Z,28.40
2018-06-20T14:55:56.829Z,28.40
2018-06-20T14:58:25.435Z,28.30
2018-06-20T15:00:54.414Z,28.30
2018-06-20T15:03:23.011Z,28.40
2018-06-20T15:05:51.657Z,28.20
2018-06-20T15:08:20.243Z,28.10
2018-06-20T15:10:48.881Z,28.20
2018-06-20T15:13:17.459Z,28.20
2018-06-20T15:15:46.121Z,28.10
2018-06-20T15:18:15.065Z,28.50
2018-06-20T15:20:43.788Z,28.50
2018-06-20T15:23:12.696Z,28.60
2018-06-20T15:25:45.546Z,28.60
2018-06-20T15:28:19.575Z,28.50
2018-06-20T15:30:53.551Z,28.20
2018-06-20T15:33:27.899Z,28.50
2018-06-20T15:36:01.954Z,28.60
2018-06-20T15:38:30.669Z,28.40
2018-06-20T15:40:59.392Z,28.20
2018-06-20T15:43:28.077Z,28.30
2018-06-20T15:45:56.765Z,28.30
2018-06-20T15:48:25.414Z,28.30
2018-06-20T15:50:54.045Z,28.10
2018-06-20T15:53:22.690Z,28.30
2018-06-20T15:55:51.417Z,28.60
2018-06-20T15:58:20.038Z,28.80
2018-06-20T16:00:48.655Z,28.70
2018-06-20T16:03:17.346Z,28.70
2018-06-20T16:05:45.996Z,28.60
2018-06-20T16:08:14.925Z,28.70
2018-06-20T16:10:43.565Z,28.60
2018-06-20T16:15:40.537Z,28.30
2018-06-20T16:18:09.205Z,28.30
2018-06-20T16:20:43.101Z,28.30
2018-06-20T16:23:17.060Z,28.40
2018-06-20T16:25:50.988Z,28.20
2018-06-20T16:28:25.154Z,28.10
2018-06-20T16:30:53.847Z,28.10
2018-06-20T16:33:22.506Z,28.20
2018-06-20T16:35:51.101Z,28.20
2018-06-20T16:38:19.773Z,28.20
2018-06-20T16:40:48.486Z,28.20
2018-06-20T16:43:17.324Z,28.40
2018-06-20T16:45:45.975Z,28.40
2018-06-20T16:48:14.637Z,28.20
2018-06-20T16:50:43.256Z,28.20
2018-06-20T16:53:11.968Z,28.30
2018-06-20T16:55:40.764Z,28.20
2018-06-20T16:58:09.546Z,28.10
2018-06-20T17:00:38.232Z,28.10
2018-06-20T17:03:06.882Z,28.30
2018-06-20T17:05:35.452Z,28.40
2018-06-20T17:08:04.135Z,28.40
2018-06-20T17:13:06.545Z,28.20
2018-06-20T17:15:40.459Z,28.20
2018-06-20T17:18:14.292Z,28.10
2018-06-20T17:20:48.561Z,28.20
2018-06-20T17:23:22.676Z,28.20
2018-06-20T17:25:51.289Z,28.00
2018-06-20T17:28:19.940Z,28.00
2018-06-20T17:30:48.510Z,28.10
2018-06-20T17:33:17.138Z,28.20
2018-06-20T17:35:45.755Z,28.10
2018-06-20T17:38:14.358Z,28.20
2018-06-20T17:40:43.122Z,28.20
2018-06-20T17:43:11.708Z,28.10
2018-06-20T17:45:40.370Z,28.10
2018-06-20T17:48:09.000Z,28.20
2018-06-20T17:50:37.617Z,28.00
2018-06-20T17:53:06.237Z,28.10
2018-06-20T17:55:34.884Z,28.10
2018-06-20T17:58:03.584Z,28.10
2018-06-20T18:00:32.286Z,28.20
2018-06-20T18:03:00.940Z,28.00
2018-06-20T18:05:36.080Z,28.00
2018-06-20T18:08:09.911Z,27.90
2018-06-20T18:10:43.965Z,27.90
2018-06-20T18:13:12.725Z,28.00
2018-06-20T18:15:46.885Z,27.90
2018-06-20T18:18:15.522Z,27.70
2018-06-20T18:20:44.142Z,27.90
2018-06-20T18:23:12.838Z,27.90
2018-06-20T18:25:41.574Z,27.70
2018-06-20T18:28:10.325Z,27.60
2018-06-20T18:30:38.959Z,27.50
2018-06-20T18:33:07.619Z,27.50
2018-06-20T18:35:36.229Z,27.60
2018-06-20T18:38:05.237Z,27.70
2018-06-20T18:40:34.025Z,27.70
2018-06-20T18:43:02.833Z,27.70
2018-06-20T18:45:31.647Z,27.70
2018-06-20T18:48:05.879Z,27.50
2018-06-20T18:50:34.712Z,27.30
2018-06-20T18:53:03.496Z,27.30
2018-06-20T18:55:32.317Z,27.20
2018-06-20T18:58:06.306Z,27.20
2018-06-20T19:00:40.473Z,27.30
2018-06-20T19:03:14.449Z,27.30
2018-06-20T19:05:48.454Z,27.30
2018-06-20T19:08:22.543Z,27.30
2018-06-20T19:10:51.281Z,27.30
2018-06-20T19:13:19.999Z,27.20
2018-06-20T19:15:48.752Z,27.10
2018-06-20T19:18:17.461Z,27.00
2018-06-20T19:20:46.186Z,26.90
2018-06-20T19:23:14.900Z,26.80
2018-06-20T19:25:43.505Z,26.80
2018-06-20T19:28:12.244Z,26.80
2018-06-20T19:30:40.896Z,26.70
2018-06-20T19:33:09.622Z,26.60
2018-06-20T19:35:38.339Z,26.60
2018-06-20T19:38:07.012Z,26.50
2018-06-20T19:40:35.752Z,26.50
2018-06-20T19:43:04.505Z,26.50
2018-06-20T19:45:33.169Z,26.40
2018-06-20T19:48:02.175Z,26.30
2018-06-20T19:50:30.918Z,26.30
2018-06-20T19:52:59.617Z,26.20
2018-06-20T19:55:28.258Z,26.20
2018-06-20T19:57:56.975Z,26.10
2018-06-20T20:00:25.675Z,26.10
2018-06-20T20:02:54.396Z,26.00
2018-06-20T20:05:23.389Z,25.90
2018-06-20T20:07:52.046Z,25.90
2018-06-20T20:10:20.752Z,25.90
2018-06-20T20:12:49.530Z,25.90
2018-06-20T20:15:18.206Z,25.80
2018-06-20T20:17:47.305Z,25.80
2018-06-20T20:20:16.105Z,25.70
2018-06-20T20:22:45.007Z,25.60
2018-06-20T20:25:13.904Z,25.60
2018-06-20T20:27:42.516Z,25.50
2018-06-20T20:30:11.221Z,25.50
2018-06-20T20:32:39.845Z,25.40
2018-06-20T20:35:08.589Z,25.40
2018-06-20T20:37:37.221Z,25.30
2018-06-20T20:40:05.858Z,25.30
2018-06-20T20:42:34.712Z,25.20
2018-06-20T20:45:03.337Z,25.20
2018-06-20T20:47:31.922Z,25.20
2018-06-20T20:50:00.557Z,25.10
2018-06-20T20:52:29.327Z,25.10
2018-06-20T20:54:57.954Z,25.00
2018-06-20T20:57:26.687Z,25.00
2018-06-20T20:59:55.340Z,25.00
2018-06-20T21:02:23.923Z,25.00
2018-06-20T21:04:52.547Z,24.90
2018-06-20T21:07:21.175Z,24.90
2018-06-20T21:09:49.876Z,24.90
2018-06-20T21:12:18.529Z,24.80
2018-06-20T21:14:47.190Z,24.80
2018-06-20T21:17:15.812Z,24.80
2018-06-20T21:19:44.938Z,24.70
2018-06-20T21:22:13.569Z,24.70
2018-06-20T21:24:43.376Z,24.70
2018-06-20T21:27:12.026Z,24.70
2018-06-20T21:29:40.654Z,24.70
2018-06-20T21:32:09.290Z,24.70
2018-06-20T21:34:37.911Z,24.60
2018-06-20T21:37:06.537Z,24.60
2018-06-20T21:39:35.133Z,24.60
2018-06-20T21:42:03.772Z,24.50
2018-06-20T21:44:32.410Z,24.50
2018-06-20T21:47:00.997Z,24.50
2018-06-20T21:49:29.611Z,24.50
2018-06-20T21:51:58.253Z,24.50
2018-06-20T21:54:27.112Z,24.50
2018-06-20T21:56:56.009Z,24.50
2018-06-20T21:59:24.614Z,24.50
2018-06-20T22:01:53.394Z,24.50
2018-06-20T22:04:22.103Z,24.50
2018-06-20T22:06:50.794Z,24.50
2018-06-20T22:09:19.773Z,24.50
2018-06-20T22:11:48.529Z,24.50
2018-06-20T22:14:17.209Z,24.50
2018-06-20T22:16:45.807Z,24.40
2018-06-20T22:19:14.468Z,24.40
2018-06-20T22:21:43.137Z,24.40
2018-06-20T22:24:11.763Z,24.40
2018-06-20T22:26:40.754Z,24.40
2018-06-20T22:29:09.531Z,24.40
2018-06-20T22:31:38.193Z,24.30
2018-06-20T22:34:06.904Z,24.30
2018-06-20T22:36:35.703Z,24.30
2018-06-20T22:39:06.400Z,24.30
2018-06-20T22:41:35.337Z,24.20
2018-06-20T22:44:04.269Z,24.20
2018-06-20T22:46:33.111Z,24.20
2018-06-20T22:49:01.866Z,24.20
2018-06-20T22:51:30.896Z,24.20
2018-06-20T22:53:59.686Z,24.20
2018-06-20T22:56:28.519Z,24.20
2018-06-20T22:58:57.519Z,24.10
2018-06-20T23:01:26.256Z,24.10
2018-06-20T23:03:55.249Z,24.10
2018-06-20T23:06:24.191Z,24.10
2018-06-20T23:08:53.032Z,24.10
2018-06-20T23:11:22.206Z,24.10
2018-06-20T23:13:51.325Z,24.10
2018-06-20T23:16:20.319Z,24.10
2018-06-20T23:18:49.110Z,24.10
2018-06-20T23:21:18.003Z,24.00
2018-06-20T23:23:46.787Z,24.10
2018-06-20T23:26:15.576Z,24.10
2018-06-20T23:28:44.469Z,24.00
2018-06-20T23:31:13.371Z,23.90
2018-06-20T23:33:42.252Z,23.90
2018-06-20T23:36:11.141Z,23.90
2018-06-20T23:38:39.932Z,23.90
2018-06-20T23:41:08.822Z,23.90
2018-06-20T23:43:37.609Z,24.00
2018-06-20T23:46:06.684Z,24.00
2018-06-20T23:48:35.495Z,24.00
2018-06-20T23:51:04.283Z,24.00
2018-06-20T23:53:33.179Z,23.90
2018-06-20T23:56:01.964Z,23.90
2018-06-20T23:58:30.766Z,23.90
